sensor_id;sensor_type;location;lat;lon;timestamp;P1;durP1;ratioP1;P2;durP2;ratioP2
15381;SDS011;7789;51.364;12.358;2024-03-22T00:02:47;9.57;;;6.67;;
15381;SDS011;7789;51.364;12.358;2024-03-22T00:07:54;12.03;;;7.50;;
15381;SDS011;7789;51.364;12.358;2024-03-22T00:12:56;9.20;;;7.30;;
15381;SDS011;7789;51.364;12.358;2024-03-22T00:18:01;10.13;;;8.20;;
15381;SDS011;7789;51.364;12.358;2024-03-22T00:23:09;11.13;;;8.37;;
15381;SDS011;7789;51.364;12.358;2024-03-22T00:28:12;9.07;;;7.53;;
15381;SDS011;7789;51.364;12.358;2024-03-22T00:33:16;13.67;;;7.87;;
15381;SDS011;7789;51.364;12.358;2024-03-22T00:38:18;13.07;;;8.90;;
15381;SDS011;7789;51.364;12.358;2024-03-22T00:43:26;11.73;;;8.03;;
15381;SDS011;7789;51.364;12.358;2024-03-22T00:48:35;11.47;;;9.57;;
15381;SDS011;7789;51.364;12.358;2024-03-22T00:53:38;12.47;;;9.87;;
15381;SDS011;7789;51.364;12.358;2024-03-22T00:58:40;15.10;;;10.30;;
15381;SDS011;7789;51.364;12.358;2024-03-22T01:03:44;13.17;;;9.70;;
15381;SDS011;7789;51.364;12.358;2024-03-22T01:08:48;13.30;;;9.67;;
15381;SDS011;7789;51.364;12.358;2024-03-22T01:13:54;13.30;;;10.13;;
15381;SDS011;7789;51.364;12.358;2024-03-22T01:18:58;13.27;;;10.03;;
15381;SDS011;7789;51.364;12.358;2024-03-22T01:24:00;18.73;;;11.23;;
15381;SDS011;7789;51.364;12.358;2024-03-22T01:29:03;15.97;;;10.70;;
15381;SDS011;7789;51.364;12.358;2024-03-22T01:34:06;17.87;;;11.40;;
15381;SDS011;7789;51.364;12.358;2024-03-22T01:39:10;16.87;;;12.03;;
15381;SDS011;7789;51.364;12.358;2024-03-22T01:44:15;20.37;;;12.53;;
15381;SDS011;7789;51.364;12.358;2024-03-22T01:49:19;18.57;;;11.67;;
15381;SDS011;7789;51.364;12.358;2024-03-22T01:54:22;17.60;;;11.67;;
15381;SDS011;7789;51.364;12.358;2024-03-22T01:59:24;17.77;;;12.63;;
15381;SDS011;7789;51.364;12.358;2024-03-22T02:04:29;15.13;;;11.63;;
15381;SDS011;7789;51.364;12.358;2024-03-22T02:09:32;16.53;;;11.73;;
15381;SDS011;7789;51.364;12.358;2024-03-22T02:14:34;17.20;;;11.83;;
15381;SDS011;7789;51.364;12.358;2024-03-22T02:19:38;15.77;;;11.67;;
15381;SDS011;7789;51.364;12.358;2024-03-22T02:24:42;15.53;;;10.73;;
15381;SDS011;7789;51.364;12.358;2024-03-22T02:29:44;16.87;;;11.37;;
15381;SDS011;7789;51.364;12.358;2024-03-22T02:34:47;16.20;;;11.47;;
15381;SDS011;7789;51.364;12.358;2024-03-22T02:39:50;15.70;;;10.43;;
15381;SDS011;7789;51.364;12.358;2024-03-22T02:44:53;17.37;;;10.70;;
15381;SDS011;7789;51.364;12.358;2024-03-22T02:49:55;15.60;;;10.57;;
15381;SDS011;7789;51.364;12.358;2024-03-22T02:54:59;13.20;;;9.90;;
15381;SDS011;7789;51.364;12.358;2024-03-22T03:00:02;17.17;;;10.30;;
15381;SDS011;7789;51.364;12.358;2024-03-22T03:05:05;15.87;;;10.37;;
15381;SDS011;7789;51.364;12.358;2024-03-22T03:10:10;12.90;;;9.33;;
15381;SDS011;7789;51.364;12.358;2024-03-22T03:15:12;16.30;;;10.17;;
15381;SDS011;7789;51.364;12.358;2024-03-22T03:20:14;14.53;;;10.17;;
15381;SDS011;7789;51.364;12.358;2024-03-22T03:25:19;12.73;;;9.10;;
15381;SDS011;7789;51.364;12.358;2024-03-22T03:30:21;12.67;;;9.53;;
15381;SDS011;7789;51.364;12.358;2024-03-22T03:35:24;15.37;;;9.37;;
15381;SDS011;7789;51.364;12.358;2024-03-22T03:40:29;13.60;;;9.83;;
15381;SDS011;7789;51.364;12.358;2024-03-22T03:45:31;11.87;;;9.10;;
15381;SDS011;7789;51.364;12.358;2024-03-22T03:50:34;11.50;;;9.13;;
15381;SDS011;7789;51.364;12.358;2024-03-22T03:55:56;13.03;;;9.07;;
15381;SDS011;7789;51.364;12.358;2024-03-22T04:00:58;10.83;;;7.63;;
15381;SDS011;7789;51.364;12.358;2024-03-22T04:06:00;12.80;;;8.20;;
15381;SDS011;7789;51.364;12.358;2024-03-22T04:11:05;11.93;;;8.83;;
15381;SDS011;7789;51.364;12.358;2024-03-22T04:16:07;9.03;;;7.73;;
15381;SDS011;7789;51.364;12.358;2024-03-22T04:21:09;12.47;;;8.87;;
15381;SDS011;7789;51.364;12.358;2024-03-22T04:26:14;9.80;;;8.03;;
15381;SDS011;7789;51.364;12.358;2024-03-22T04:31:17;9.03;;;7.47;;
15381;SDS011;7789;51.364;12.358;2024-03-22T04:36:19;11.67;;;7.97;;
15381;SDS011;7789;51.364;12.358;2024-03-22T04:41:24;8.63;;;6.30;;
15381;SDS011;7789;51.364;12.358;2024-03-22T04:46:26;9.10;;;6.20;;
15381;SDS011;7789;51.364;12.358;2024-03-22T04:51:28;8.27;;;5.67;;
15381;SDS011;7789;51.364;12.358;2024-03-22T04:56:33;8.07;;;5.50;;
15381;SDS011;7789;51.364;12.358;2024-03-22T05:01:35;6.97;;;5.20;;
15381;SDS011;7789;51.364;12.358;2024-03-22T05:06:37;7.23;;;5.37;;
15381;SDS011;7789;51.364;12.358;2024-03-22T05:11:41;5.70;;;4.80;;
15381;SDS011;7789;51.364;12.358;2024-03-22T05:16:44;6.90;;;4.67;;
15381;SDS011;7789;51.364;12.358;2024-03-22T05:21:46;6.73;;;5.07;;
15381;SDS011;7789;51.364;12.358;2024-03-22T05:26:50;6.13;;;4.60;;
15381;SDS011;7789;51.364;12.358;2024-03-22T05:31:54;7.13;;;4.60;;
15381;SDS011;7789;51.364;12.358;2024-03-22T05:36:57;8.87;;;4.77;;
15381;SDS011;7789;51.364;12.358;2024-03-22T05:42:03;5.57;;;4.40;;
15381;SDS011;7789;51.364;12.358;2024-03-22T05:47:05;6.27;;;4.80;;
15381;SDS011;7789;51.364;12.358;2024-03-22T05:52:07;5.53;;;4.27;;
15381;SDS011;7789;51.364;12.358;2024-03-22T05:57:11;8.33;;;4.47;;
15381;SDS011;7789;51.364;12.358;2024-03-22T06:02:14;7.73;;;4.80;;
15381;SDS011;7789;51.364;12.358;2024-03-22T06:07:17;7.83;;;4.53;;
15381;SDS011;7789;51.364;12.358;2024-03-22T06:12:25;5.70;;;4.70;;
15381;SDS011;7789;51.364;12.358;2024-03-22T06:17:32;7.10;;;5.20;;
15381;SDS011;7789;51.364;12.358;2024-03-22T06:22:35;8.13;;;4.90;;
15381;SDS011;7789;51.364;12.358;2024-03-22T06:27:44;8.27;;;4.37;;
15381;SDS011;7789;51.364;12.358;2024-03-22T06:32:46;5.23;;;4.57;;
15381;SDS011;7789;51.364;12.358;2024-03-22T06:37:49;6.10;;;4.37;;
15381;SDS011;7789;51.364;12.358;2024-03-22T06:42:55;9.23;;;5.40;;
15381;SDS011;7789;51.364;12.358;2024-03-22T06:48:00;6.20;;;4.73;;
15381;SDS011;7789;51.364;12.358;2024-03-22T06:53:03;9.50;;;5.33;;
15381;SDS011;7789;51.364;12.358;2024-03-22T06:58:07;9.07;;;5.43;;
15381;SDS011;7789;51.364;12.358;2024-03-22T07:03:09;8.43;;;5.70;;
15381;SDS011;7789;51.364;12.358;2024-03-22T07:08:11;7.47;;;5.70;;
15381;SDS011;7789;51.364;12.358;2024-03-22T07:13:16;7.80;;;5.73;;
15381;SDS011;7789;51.364;12.358;2024-03-22T07:18:18;12.23;;;6.27;;
15381;SDS011;7789;51.364;12.358;2024-03-22T07:23:20;9.03;;;6.10;;
15381;SDS011;7789;51.364;12.358;2024-03-22T07:28:25;10.03;;;6.37;;
15381;SDS011;7789;51.364;12.358;2024-03-22T07:33:28;10.20;;;6.87;;
15381;SDS011;7789;51.364;12.358;2024-03-22T07:38:30;10.33;;;6.50;;
15381;SDS011;7789;51.364;12.358;2024-03-22T07:43:34;9.90;;;7.20;;
15381;SDS011;7789;51.364;12.358;2024-03-22T07:48:37;11.17;;;7.10;;
15381;SDS011;7789;51.364;12.358;2024-03-22T07:53:39;10.33;;;7.33;;
15381;SDS011;7789;51.364;12.358;2024-03-22T07:58:44;13.57;;;7.60;;
15381;SDS011;7789;51.364;12.358;2024-03-22T08:03:47;11.35;;;7.68;;
15381;SDS011;7789;51.364;12.358;2024-03-22T08:08:50;10.75;;;7.88;;
15381;SDS011;7789;51.364;12.358;2024-03-22T08:13:54;12.30;;;8.82;;
15381;SDS011;7789;51.364;12.358;2024-03-22T08:19:05;12.65;;;8.43;;
15381;SDS011;7789;51.364;12.358;2024-03-22T08:24:09;11.50;;;9.52;;
15381;SDS011;7789;51.364;12.358;2024-03-22T08:29:13;13.63;;;9.40;;
15381;SDS011;7789;51.364;12.358;2024-03-22T08:34:16;13.13;;;9.88;;
15381;SDS011;7789;51.364;12.358;2024-03-22T08:39:20;13.95;;;10.70;;
15381;SDS011;7789;51.364;12.358;2024-03-22T08:44:24;14.32;;;10.02;;
15381;SDS011;7789;51.364;12.358;2024-03-22T08:49:27;11.95;;;10.10;;
15381;SDS011;7789;51.364;12.358;2024-03-22T08:54:34;16.15;;;10.90;;
15381;SDS011;7789;51.364;12.358;2024-03-22T08:59:38;13.98;;;10.77;;
15381;SDS011;7789;51.364;12.358;2024-03-22T09:04:41;15.10;;;10.43;;
15381;SDS011;7789;51.364;12.358;2024-03-22T09:09:47;12.88;;;10.60;;
15381;SDS011;7789;51.364;12.358;2024-03-22T09:14:51;15.95;;;11.32;;
15381;SDS011;7789;51.364;12.358;2024-03-22T09:19:54;13.23;;;10.65;;
15381;SDS011;7789;51.364;12.358;2024-03-22T09:24:56;11.88;;;10.07;;
15381;SDS011;7789;51.364;12.358;2024-03-22T09:30:00;10.63;;;9.00;;
15381;SDS011;7789;51.364;12.358;2024-03-22T09:35:05;12.55;;;9.15;;
15381;SDS011;7789;51.364;12.358;2024-03-22T09:40:08;12.18;;;9.32;;
15381;SDS011;7789;51.364;12.358;2024-03-22T09:45:13;12.35;;;9.23;;
15381;SDS011;7789;51.364;12.358;2024-03-22T09:50:19;12.00;;;9.20;;
15381;SDS011;7789;51.364;12.358;2024-03-22T09:55:25;12.13;;;9.18;;
15381;SDS011;7789;51.364;12.358;2024-03-22T10:00:30;11.27;;;8.75;;
15381;SDS011;7789;51.364;12.358;2024-03-22T10:05:33;8.95;;;7.72;;
15381;SDS011;7789;51.364;12.358;2024-03-22T10:10:36;10.02;;;8.07;;
15381;SDS011;7789;51.364;12.358;2024-03-22T10:15:40;9.18;;;7.43;;
15381;SDS011;7789;51.364;12.358;2024-03-22T10:20:42;11.98;;;8.52;;
15381;SDS011;7789;51.364;12.358;2024-03-22T10:25:45;10.05;;;7.75;;
15381;SDS011;7789;51.364;12.358;2024-03-22T10:30:49;9.00;;;7.32;;
15381;SDS011;7789;51.364;12.358;2024-03-22T10:35:53;8.52;;;6.53;;
15381;SDS011;7789;51.364;12.358;2024-03-22T10:40:57;8.43;;;6.80;;
15381;SDS011;7789;51.364;12.358;2024-03-22T10:46:02;8.60;;;6.25;;
15381;SDS011;7789;51.364;12.358;2024-03-22T10:51:06;6.78;;;5.93;;
15381;SDS011;7789;51.364;12.358;2024-03-22T10:56:09;9.05;;;6.05;;
15381;SDS011;7789;51.364;12.358;2024-03-22T11:01:22;7.35;;;6.20;;
15381;SDS011;7789;51.364;12.358;2024-03-22T11:06:26;9.23;;;6.22;;
15381;SDS011;7789;51.364;12.358;2024-03-22T11:11:29;8.75;;;7.07;;
15381;SDS011;7789;51.364;12.358;2024-03-22T11:16:40;9.32;;;6.82;;
15381;SDS011;7789;51.364;12.358;2024-03-22T11:21:45;7.85;;;6.28;;
15381;SDS011;7789;51.364;12.358;2024-03-22T11:26:48;9.25;;;7.47;;
15381;SDS011;7789;51.364;12.358;2024-03-22T11:31:52;10.35;;;7.93;;
15381;SDS011;7789;51.364;12.358;2024-03-22T11:36:55;10.70;;;7.95;;
15381;SDS011;7789;51.364;12.358;2024-03-22T11:42:00;10.80;;;8.10;;
15381;SDS011;7789;51.364;12.358;2024-03-22T11:47:05;9.98;;;8.18;;
15381;SDS011;7789;51.364;12.358;2024-03-22T11:52:09;14.32;;;8.70;;
15381;SDS011;7789;51.364;12.358;2024-03-22T11:57:12;13.13;;;8.52;;
15381;SDS011;7789;51.364;12.358;2024-03-22T12:02:16;9.23;;;7.95;;
15381;SDS011;7789;51.364;12.358;2024-03-22T12:07:23;11.88;;;8.85;;
15381;SDS011;7789;51.364;12.358;2024-03-22T12:12:29;11.52;;;8.82;;
15381;SDS011;7789;51.364;12.358;2024-03-22T12:17:39;10.90;;;8.82;;
15381;SDS011;7789;51.364;12.358;2024-03-22T12:22:44;9.95;;;8.88;;
15381;SDS011;7789;51.364;12.358;2024-03-22T12:27:51;10.43;;;8.77;;
15381;SDS011;7789;51.364;12.358;2024-03-22T12:32:54;10.45;;;8.80;;
15381;SDS011;7789;51.364;12.358;2024-03-22T12:37:58;11.80;;;10.02;;
15381;SDS011;7789;51.364;12.358;2024-03-22T12:43:00;13.15;;;10.40;;
15381;SDS011;7789;51.364;12.358;2024-03-22T12:48:07;15.13;;;10.32;;
15381;SDS011;7789;51.364;12.358;2024-03-22T12:53:14;16.92;;;10.27;;
15381;SDS011;7789;51.364;12.358;2024-03-22T12:58:19;12.43;;;10.57;;
15381;SDS011;7789;51.364;12.358;2024-03-22T13:03:23;15.93;;;10.85;;
15381;SDS011;7789;51.364;12.358;2024-03-22T13:08:26;13.63;;;10.80;;
15381;SDS011;7789;51.364;12.358;2024-03-22T13:13:28;15.05;;;10.88;;
15381;SDS011;7789;51.364;12.358;2024-03-22T13:18:32;12.43;;;9.73;;
15381;SDS011;7789;51.364;12.358;2024-03-22T13:23:35;12.48;;;9.55;;
15381;SDS011;7789;51.364;12.358;2024-03-22T13:28:37;14.80;;;9.93;;
15381;SDS011;7789;51.364;12.358;2024-03-22T13:33:43;12.98;;;9.40;;
15381;SDS011;7789;51.364;12.358;2024-03-22T13:38:45;10.98;;;8.63;;
15381;SDS011;7789;51.364;12.358;2024-03-22T13:43:48;9.00;;;7.95;;
15381;SDS011;7789;51.364;12.358;2024-03-22T13:48:52;10.65;;;8.48;;
15381;SDS011;7789;51.364;12.358;2024-03-22T13:53:54;11.30;;;8.02;;
15381;SDS011;7789;51.364;12.358;2024-03-22T13:59:07;8.63;;;7.72;;
15381;SDS011;7789;51.364;12.358;2024-03-22T14:04:11;10.00;;;8.25;;
15381;SDS011;7789;51.364;12.358;2024-03-22T14:09:15;11.85;;;8.75;;
15381;SDS011;7789;51.364;12.358;2024-03-22T14:14:19;13.85;;;9.07;;
15381;SDS011;7789;51.364;12.358;2024-03-22T14:19:25;12.18;;;8.88;;
15381;SDS011;7789;51.364;12.358;2024-03-22T14:24:27;12.93;;;9.43;;
15381;SDS011;7789;51.364;12.358;2024-03-22T14:29:30;11.73;;;9.07;;
15381;SDS011;7789;51.364;12.358;2024-03-22T14:34:34;14.07;;;9.63;;
15381;SDS011;7789;51.364;12.358;2024-03-22T14:39:37;11.32;;;9.02;;
15381;SDS011;7789;51.364;12.358;2024-03-22T14:44:43;11.35;;;9.35;;
15381;SDS011;7789;51.364;12.358;2024-03-22T14:49:50;13.88;;;9.43;;
15381;SDS011;7789;51.364;12.358;2024-03-22T14:54:56;12.60;;;8.70;;
15381;SDS011;7789;51.364;12.358;2024-03-22T14:59:58;11.73;;;9.90;;
15381;SDS011;7789;51.364;12.358;2024-03-22T15:05:03;13.05;;;9.93;;
15381;SDS011;7789;51.364;12.358;2024-03-22T15:10:06;15.13;;;10.07;;
15381;SDS011;7789;51.364;12.358;2024-03-22T15:15:09;10.35;;;9.27;;
15381;SDS011;7789;51.364;12.358;2024-03-22T15:20:13;13.45;;;10.25;;
15381;SDS011;7789;51.364;12.358;2024-03-22T15:25:16;12.15;;;10.27;;
15381;SDS011;7789;51.364;12.358;2024-03-22T15:30:19;14.93;;;10.70;;
15381;SDS011;7789;51.364;12.358;2024-03-22T15:35:25;11.40;;;9.85;;
15381;SDS011;7789;51.364;12.358;2024-03-22T15:40:31;12.35;;;9.95;;
15381;SDS011;7789;51.364;12.358;2024-03-22T15:45:34;14.15;;;9.98;;
15381;SDS011;7789;51.364;12.358;2024-03-22T15:50:42;13.77;;;11.00;;
15381;SDS011;7789;51.364;12.358;2024-03-22T15:55:47;11.50;;;9.75;;
15381;SDS011;7789;51.364;12.358;2024-03-22T16:00:50;12.32;;;9.98;;
15381;SDS011;7789;51.364;12.358;2024-03-22T16:05:54;11.75;;;10.48;;
15381;SDS011;7789;51.364;12.358;2024-03-22T16:10:59;14.35;;;10.60;;
15381;SDS011;7789;51.364;12.358;2024-03-22T16:16:04;13.45;;;10.25;;
15381;SDS011;7789;51.364;12.358;2024-03-22T16:21:09;12.43;;;11.07;;
15381;SDS011;7789;51.364;12.358;2024-03-22T16:26:14;12.48;;;9.85;;
15381;SDS011;7789;51.364;12.358;2024-03-22T16:31:18;11.85;;;10.20;;
15381;SDS011;7789;51.364;12.358;2024-03-22T16:36:22;13.55;;;9.75;;
15381;SDS011;7789;51.364;12.358;2024-03-22T16:41:25;12.70;;;10.27;;
15381;SDS011;7789;51.364;12.358;2024-03-22T16:46:42;12.50;;;10.57;;
15381;SDS011;7789;51.364;12.358;2024-03-22T16:51:44;12.75;;;10.88;;
15381;SDS011;7789;51.364;12.358;2024-03-22T16:56:48;16.05;;;11.02;;
15381;SDS011;7789;51.364;12.358;2024-03-22T17:01:53;14.55;;;12.20;;
15381;SDS011;7789;51.364;12.358;2024-03-22T17:06:55;17.27;;;13.20;;
15381;SDS011;7789;51.364;12.358;2024-03-22T17:12:01;15.77;;;12.48;;
15381;SDS011;7789;51.364;12.358;2024-03-22T17:17:06;14.10;;;12.13;;
15381;SDS011;7789;51.364;12.358;2024-03-22T17:22:16;13.75;;;12.32;;
15381;SDS011;7789;51.364;12.358;2024-03-22T17:27:20;16.10;;;12.52;;
15381;SDS011;7789;51.364;12.358;2024-03-22T17:32:27;13.35;;;11.20;;
15381;SDS011;7789;51.364;12.358;2024-03-22T17:37:31;17.58;;;14.70;;
15381;SDS011;7789;51.364;12.358;2024-03-22T17:42:40;16.55;;;12.10;;
15381;SDS011;7789;51.364;12.358;2024-03-22T17:47:45;13.70;;;11.40;;
15381;SDS011;7789;51.364;12.358;2024-03-22T17:52:48;13.80;;;11.18;;
15381;SDS011;7789;51.364;12.358;2024-03-22T17:57:54;14.43;;;11.85;;
15381;SDS011;7789;51.364;12.358;2024-03-22T18:02:58;14.00;;;11.55;;
15381;SDS011;7789;51.364;12.358;2024-03-22T18:08:00;17.83;;;12.55;;
15381;SDS011;7789;51.364;12.358;2024-03-22T18:13:03;15.82;;;12.18;;
15381;SDS011;7789;51.364;12.358;2024-03-22T18:18:14;13.55;;;11.25;;
15381;SDS011;7789;51.364;12.358;2024-03-22T18:23:16;16.90;;;12.23;;
15381;SDS011;7789;51.364;12.358;2024-03-22T18:28:22;16.20;;;13.13;;
15381;SDS011;7789;51.364;12.358;2024-03-22T18:33:26;17.42;;;13.10;;
15381;SDS011;7789;51.364;12.358;2024-03-22T18:38:29;14.95;;;12.07;;
15381;SDS011;7789;51.364;12.358;2024-03-22T18:43:34;17.85;;;13.50;;
15381;SDS011;7789;51.364;12.358;2024-03-22T18:48:38;16.85;;;13.80;;
15381;SDS011;7789;51.364;12.358;2024-03-22T18:53:43;18.73;;;14.05;;
15381;SDS011;7789;51.364;12.358;2024-03-22T18:58:48;16.52;;;12.90;;
15381;SDS011;7789;51.364;12.358;2024-03-22T19:04:00;15.45;;;13.38;;
15381;SDS011;7789;51.364;12.358;2024-03-22T19:09:03;17.30;;;14.75;;
15381;SDS011;7789;51.364;12.358;2024-03-22T19:14:07;15.98;;;12.90;;
15381;SDS011;7789;51.364;12.358;2024-03-22T19:19:20;19.50;;;14.15;;
15381;SDS011;7789;51.364;12.358;2024-03-22T19:24:23;18.10;;;14.05;;
15381;SDS011;7789;51.364;12.358;2024-03-22T19:29:31;20.98;;;14.88;;
15381;SDS011;7789;51.364;12.358;2024-03-22T19:34:35;22.05;;;14.65;;
15381;SDS011;7789;51.364;12.358;2024-03-22T19:39:39;18.08;;;14.95;;
15381;SDS011;7789;51.364;12.358;2024-03-22T19:44:42;17.23;;;13.70;;
15381;SDS011;7789;51.364;12.358;2024-03-22T19:49:46;17.67;;;14.07;;
15381;SDS011;7789;51.364;12.358;2024-03-22T19:54:52;16.20;;;12.25;;
15381;SDS011;7789;51.364;12.358;2024-03-22T19:59:54;14.65;;;12.18;;
15381;SDS011;7789;51.364;12.358;2024-03-22T20:04:59;17.08;;;12.15;;
15381;SDS011;7789;51.364;12.358;2024-03-22T20:10:03;15.88;;;11.95;;
15381;SDS011;7789;51.364;12.358;2024-03-22T20:15:07;18.10;;;12.73;;
15381;SDS011;7789;51.364;12.358;2024-03-22T20:20:12;18.05;;;13.35;;
15381;SDS011;7789;51.364;12.358;2024-03-22T20:25:18;14.95;;;12.18;;
15381;SDS011;7789;51.364;12.358;2024-03-22T20:30:24;15.95;;;13.23;;
15381;SDS011;7789;51.364;12.358;2024-03-22T20:35:27;18.92;;;15.27;;
15381;SDS011;7789;51.364;12.358;2024-03-22T20:40:35;19.38;;;15.50;;
